Time;durP1;ratioP1;P1;durP2;ratioP2;P2;SDS_P1;SDS_P2;PMS_P1;PMS_P2;Temp;Humidity;BMP_temperature;BMP_pressure;BME280_temperature;BME280_humidity;BME280_pressure;Samples;Min_cycle;Max_cycle;Signal;HPM_P1;HPM_P2
2021/01/22 00:01:36;;;;;;;3.03;2.28;;;;;;;-145.48;100.00;59605.97;6237034;23;20004;-80
2021/01/22 00:04:02;;;;;;;3.80;2.75;;;;;;;-145.48;100.00;59605.97;6211977;23;20099;-80
2021/01/22 00:06:28;;;;;;;4.82;2.60;;;;;;;-145.48;100.00;59605.97;6212350;23;20023;-81
2021/01/22 00:08:53;;;;;;;3.55;2.30;;;;;;;-145.48;100.00;59605.97;6213447;23;20795;-81
2021/01/22 00:11:18;;;;;;;5.00;2.45;;;;;;;-145.48;100.00;59605.97;6214922;23;20004;-80
2021/01/22 00:13:44;;;;;;;6.78;2.28;;;;;;;-145.48;100.00;59605.97;6214624;23;20095;-81
2021/01/22 00:16:09;;;;;;;2.70;2.28;;;;;;;-145.48;100.00;59605.97;6211246;23;20012;-80
2021/01/22 00:18:34;;;;;;;5.10;2.55;;;;;;;-145.48;100.00;59605.97;6211923;23;20004;-80
2021/01/22 00:21:00;;;;;;;5.47;2.13;;;;;;;-145.48;100.00;59605.97;6212058;23;20592;-81
2021/01/22 00:23:27;;;;;;;2.63;1.95;;;;;;;-145.48;100.00;59605.97;6210162;23;20063;-81
2021/01/22 00:25:52;;;;;;;4.22;1.50;;;;;;;-145.48;100.00;59605.97;6211610;23;20071;-81
2021/01/22 00:28:17;;;;;;;1.90;0.98;;;;;;;-145.48;100.00;59605.97;6213006;23;20000;-80
2021/01/22 00:30:43;;;;;;;4.70;1.17;;;;;;;-145.48;100.00;59605.97;6212601;23;20455;-81
2021/01/22 00:33:08;;;;;;;2.22;0.93;;;;;;;-145.48;100.00;59605.97;6207288;23;20012;-81
2021/01/22 00:35:33;;;;;;;0.73;0.32;;;;;;;-145.48;100.00;59605.97;6210534;23;20693;-81
2021/01/22 00:37:58;;;;;;;3.00;0.43;;;;;;;-145.48;100.00;59605.97;6212135;23;20087;-80
2021/01/22 00:40:24;;;;;;;6.35;0.47;;;;;;;-145.48;100.00;59605.97;6210160;23;20012;-80
2021/01/22 00:42:49;;;;;;;2.80;0.55;;;;;;;-145.48;100.00;59605.97;6212482;23;20762;-81
2021/01/22 00:45:14;;;;;;;1.73;0.55;;;;;;;-145.48;100.00;59605.97;6213488;23;20008;-81
2021/01/22 00:47:40;;;;;;;1.27;0.20;;;;;;;-145.48;100.00;59605.97;6214068;23;20008;-81
2021/01/22 00:50:05;;;;;;;0.73;0.30;;;;;;;-145.48;100.00;59605.97;6214014;23;20054;-81
2021/01/22 00:52:31;;;;;;;0.82;0.20;;;;;;;-145.48;100.00;59605.97;6214089;23;20008;-81
2021/01/22 00:54:56;;;;;;;1.08;0.50;;;;;;;-145.48;100.00;59605.97;6211777;23;20004;-81
2021/01/22 00:57:22;;;;;;;1.83;0.28;;;;;;;-145.48;100.00;59605.97;6211956;23;20106;-81
2021/01/22 00:59:47;;;;;;;0.75;0.40;;;;;;;-145.48;100.00;59605.97;6214652;23;20098;-81
2021/01/22 01:02:14;;;;;;;2.78;0.85;;;;;;;-145.48;100.00;59605.97;6210072;23;20008;-81
2021/01/22 01:04:40;;;;;;;2.55;0.30;;;;;;;-145.48;100.00;59605.97;6235161;22;20488;-81
2021/01/22 01:07:05;;;;;;;3.17;0.90;;;;;;;-145.48;100.00;59605.97;6243823;23;20008;-81
2021/01/22 01:09:30;;;;;;;1.42;0.40;;;;;;;-145.48;100.00;59605.97;6243637;23;20035;-81
2021/01/22 01:11:55;;;;;;;1.20;0.32;;;;;;;-145.48;100.00;59605.97;6242695;23;20004;-80
2021/01/22 01:14:21;;;;;;;4.68;0.40;;;;;;;-145.48;100.00;59605.97;6251570;23;20007;-81
2021/01/22 01:16:46;;;;;;;1.00;0.32;;;;;;;-145.48;100.00;59605.97;6245621;23;20416;-81
2021/01/22 01:19:11;;;;;;;2.47;0.40;;;;;;;-145.48;100.00;59605.97;6217455;23;20007;-81
2021/01/22 01:21:37;;;;;;;2.33;0.40;;;;;;;-145.48;100.00;59605.97;6243883;23;20019;-81
2021/01/22 01:24:02;;;;;;;2.78;0.40;;;;;;;-145.48;100.00;59605.97;6223659;23;20011;-79
2021/01/22 01:26:28;;;;;;;0.20;0.20;;;;;;;-145.48;100.00;59605.97;6225181;23;20601;-82
2021/01/22 01:28:53;;;;;;;0.77;0.30;;;;;;;-145.48;100.00;59605.97;6253206;23;20004;-82
2021/01/22 01:31:18;;;;;;;7.13;0.57;;;;;;;-145.48;100.00;59605.97;6222165;23;20430;-81
2021/01/22 01:33:44;;;;;;;1.08;0.30;;;;;;;-145.48;100.00;59605.97;6216105;23;20027;-81
2021/01/22 01:36:09;;;;;;;1.35;0.20;;;;;;;-145.48;100.00;59605.97;6248117;23;20000;-82
2021/01/22 01:38:35;;;;;;;1.05;0.30;;;;;;;-145.48;100.00;59605.97;6250178;23;20083;-81
2021/01/22 01:41:00;;;;;;;1.10;0.40;;;;;;;-145.48;100.00;59605.97;6250756;23;20007;-82
2021/01/22 01:43:25;;;;;;;1.77;0.50;;;;;;;-145.48;100.00;59605.97;6248760;23;20012;-81
2021/01/22 01:45:51;;;;;;;2.60;0.45;;;;;;;-145.48;100.00;59605.97;6244827;23;20000;-81
2021/01/22 01:48:17;;;;;;;1.92;0.40;;;;;;;-145.48;100.00;59605.97;6243856;23;20019;-81
2021/01/22 01:50:43;;;;;;;2.15;0.57;;;;;;;-145.48;100.00;59605.97;6246981;23;20034;-80
2021/01/22 01:53:09;;;;;;;1.65;0.40;;;;;;;-145.48;100.00;59605.97;6248555;23;20007;-80
2021/01/22 01:55:35;;;;;;;1.60;0.60;;;;;;;-145.48;100.00;59605.97;6217513;23;20014;-80
2021/01/22 01:58:03;;;;;;;1.52;0.52;;;;;;;-145.48;100.00;59605.97;6219896;23;20023;-81
2021/01/22 02:00:29;;;;;;;2.08;0.55;;;;;;;-145.48;100.00;59605.97;6242622;23;20004;-80
2021/01/22 02:02:55;;;;;;;2.78;0.40;;;;;;;-145.48;100.00;59605.97;6216747;22;20090;-80
2021/01/22 02:05:20;;;;;;;2.05;0.52;;;;;;;-145.48;100.00;59605.97;6217979;23;20089;-81
2021/01/22 02:07:45;;;;;;;2.35;0.38;;;;;;;-145.48;100.00;59605.97;6245651;23;20031;-81
2021/01/22 02:10:12;;;;;;;2.45;0.40;;;;;;;-145.48;100.00;59605.97;6219116;23;20102;-81
2021/01/22 02:12:38;;;;;;;1.75;0.50;;;;;;;-145.48;100.00;59605.97;6220083;23;20004;-81
2021/01/22 02:15:07;;;;;;;2.83;0.30;;;;;;;-145.48;100.00;59605.97;6221991;23;20008;-81
2021/01/22 02:17:33;;;;;;;2.80;0.57;;;;;;;-145.48;100.00;59605.97;6248266;23;20508;-81
2021/01/22 02:20:08;;;;;;;1.38;0.30;;;;;;;-145.48;100.00;59605.97;6222849;23;20757;-81
2021/01/22 02:22:34;;;;;;;0.55;0.20;;;;;;;-145.48;100.00;59605.97;6247815;23;20493;-80
2021/01/22 02:25:00;;;;;;;0.52;0.40;;;;;;;-145.48;100.00;59605.97;6244856;23;20035;-81
2021/01/22 02:27:26;;;;;;;0.90;0.40;;;;;;;-145.48;100.00;59605.97;6244043;23;20065;-81
2021/01/22 02:29:52;;;;;;;2.67;0.40;;;;;;;-145.48;100.00;59605.97;6243879;23;20110;-81
2021/01/22 02:32:18;;;;;;;3.63;1.13;;;;;;;-145.48;100.00;59605.97;6210635;23;20012;-81
2021/01/22 02:34:45;;;;;;;3.25;0.40;;;;;;;-145.48;100.00;59605.97;6242350;23;20080;-81
2021/01/22 02:37:12;;;;;;;2.05;0.55;;;;;;;-145.48;100.00;59605.97;6217212;23;20046;-81
2021/01/22 02:39:40;;;;;;;2.40;0.43;;;;;;;-145.48;100.00;59605.97;6244026;23;20010;-81
2021/01/22 02:42:08;;;;;;;4.00;0.50;;;;;;;-145.48;100.00;59605.97;6245042;23;20004;-81
2021/01/22 02:44:35;;;;;;;3.42;0.40;;;;;;;-145.48;100.00;59605.97;6244492;23;20060;-82
2021/01/22 02:47:04;;;;;;;2.20;0.32;;;;;;;-145.48;100.00;59605.97;6244112;23;20085;-82
2021/01/22 02:49:30;;;;;;;1.85;0.43;;;;;;;-145.48;100.00;59605.97;6243326;23;20000;-81
2021/01/22 02:51:55;;;;;;;5.93;2.13;;;;;;;-145.48;100.00;59605.97;6215700;23;20318;-80
2021/01/22 02:54:20;;;;;;;9.63;1.55;;;;;;;-145.48;100.00;59605.97;6243028;23;20595;-81
2021/01/22 02:57:02;;;;;;;3.55;1.02;;;;;;;-145.48;100.00;59605.97;6216200;23;20019;-80
2021/01/22 03:00:02;;;;;;;7.32;0.90;;;;;;;-145.48;100.00;59605.97;6219456;23;20342;-81
2021/01/22 03:02:55;;;;;;;6.25;1.13;;;;;;;-145.48;100.00;59605.97;6245783;23;20000;-80
2021/01/22 03:05:23;;;;;;;5.68;1.33;;;;;;;-145.48;100.00;59605.97;6244144;23;20019;-80
2021/01/22 03:07:53;;;;;;;9.70;1.75;;;;;;;-145.48;100.00;59605.97;6217226;23;20012;-80
2021/01/22 03:10:21;;;;;;;3.10;1.00;;;;;;;-145.48;100.00;59605.97;6244212;23;20008;-80
2021/01/22 03:12:51;;;;;;;6.10;0.90;;;;;;;-145.48;100.00;59605.97;6218975;23;20436;-80
2021/01/22 03:15:17;;;;;;;7.05;1.00;;;;;;;-145.48;100.00;59605.97;6242921;23;20015;-80
2021/01/22 03:17:43;;;;;;;5.88;1.17;;;;;;;-145.48;100.00;59605.97;6244024;23;20004;-80
2021/01/22 03:20:11;;;;;;;10.15;1.17;;;;;;;-145.48;100.00;59605.97;6242946;23;20079;-79
2021/01/22 03:22:36;;;;;;;7.45;1.10;;;;;;;-145.48;100.00;59605.97;6242992;23;20004;-80
2021/01/22 03:25:02;;;;;;;7.25;1.15;;;;;;;-145.48;100.00;59605.97;6216872;23;20098;-81
2021/01/22 03:27:27;;;;;;;7.30;1.55;;;;;;;-145.48;100.00;59605.97;6244052;23;20050;-80
2021/01/22 03:29:53;;;;;;;2.72;1.02;;;;;;;-145.48;100.00;59605.97;6216404;23;20736;-80
2021/01/22 03:32:18;;;;;;;5.40;1.70;;;;;;;-145.48;100.00;59605.97;6241270;23;20008;-80
2021/01/22 03:34:43;;;;;;;3.78;1.63;;;;;;;-145.48;100.00;59605.97;6215722;23;20403;-80
2021/01/22 03:37:09;;;;;;;11.57;1.83;;;;;;;-145.48;100.00;59605.97;6217212;23;20292;-80
2021/01/22 03:39:35;;;;;;;3.50;1.13;;;;;;;-145.48;100.00;59605.97;6243401;23;20004;-80
2021/01/22 03:42:01;;;;;;;6.07;1.83;;;;;;;-145.48;100.00;59605.97;6220467;23;20393;-80
2021/01/22 03:44:26;;;;;;;4.70;2.35;;;;;;;-145.48;100.00;59605.97;6245583;23;20035;-79
2021/01/22 03:46:52;;;;;;;8.10;2.60;;;;;;;-145.48;100.00;59605.97;6220532;23;20011;-80
2021/01/22 03:49:17;;;;;;;6.53;3.25;;;;;;;-145.48;100.00;59605.97;6249809;23;19992;-81
2021/01/22 03:51:42;;;;;;;10.82;3.45;;;;;;;-145.48;100.00;59605.97;6249948;23;20091;-82
2021/01/22 03:54:07;;;;;;;6.72;3.25;;;;;;;-145.48;100.00;59605.97;6246751;23;20006;-80
2021/01/22 03:56:33;;;;;;;9.63;3.80;;;;;;;-145.48;100.00;59605.97;6242756;23;20015;-80
2021/01/22 03:58:58;;;;;;;11.45;4.45;;;;;;;-145.48;100.00;59605.97;6244479;23;20009;-80
2021/01/22 04:01:24;;;;;;;7.28;3.90;;;;;;;-145.48;100.00;59605.97;6216444;23;20014;-81
2021/01/22 04:03:49;;;;;;;13.95;5.47;;;;;;;-145.48;100.00;59605.97;6245473;23;20019;-81
2021/01/22 04:06:16;;;;;;;10.82;4.85;;;;;;;-145.48;100.00;59605.97;6217547;23;20031;-80
2021/01/22 04:08:41;;;;;;;12.57;4.85;;;;;;;-145.48;100.00;59605.97;6245453;23;20322;-80
2021/01/22 04:11:07;;;;;;;9.90;5.32;;;;;;;-145.48;100.00;59605.97;6244482;23;20004;-80
2021/01/22 04:13:33;;;;;;;12.10;5.25;;;;;;;-145.48;100.00;59605.97;6245406;23;20008;-81
2021/01/22 04:15:58;;;;;;;11.50;6.35;;;;;;;-145.48;100.00;59605.97;6246622;23;20008;-81
2021/01/22 04:18:23;;;;;;;15.35;6.53;;;;;;;-145.48;100.00;59605.97;6249706;23;20015;-81
2021/01/22 04:20:51;;;;;;;14.00;6.40;;;;;;;-145.48;100.00;59605.97;6248806;23;20015;-81
2021/01/22 04:23:17;;;;;;;16.00;6.72;;;;;;;-145.48;100.00;59605.97;6248996;23;20025;-81
2021/01/22 04:25:42;;;;;;;13.23;7.38;;;;;;;-145.48;100.00;59605.97;6250402;23;20098;-81
2021/01/22 04:28:07;;;;;;;14.60;7.13;;;;;;;-145.48;100.00;59605.97;6251925;23;19997;-81
2021/01/22 04:30:32;;;;;;;14.40;7.32;;;;;;;-145.48;100.00;59605.97;6252105;23;20028;-81
2021/01/22 04:32:58;;;;;;;17.48;9.13;;;;;;;-145.48;100.00;59605.97;6219952;23;20034;-82
2021/01/22 04:35:23;;;;;;;13.30;7.50;;;;;;;-145.48;100.00;59605.97;6219668;23;20551;-80
2021/01/22 04:37:48;;;;;;;13.00;6.50;;;;;;;-145.48;100.00;59605.97;6246069;23;20026;-82
2021/01/22 04:40:16;;;;;;;15.38;6.75;;;;;;;-145.48;100.00;59605.97;6248547;23;20004;-81
2021/01/22 04:42:43;;;;;;;19.65;7.82;;;;;;;-145.48;100.00;59605.97;6249252;23;20058;-81
2021/01/22 04:45:13;;;;;;;13.93;7.97;;;;;;;-145.48;100.00;59605.97;6218958;23;20398;-80
2021/01/22 04:47:39;;;;;;;15.20;7.43;;;;;;;-145.48;100.00;59605.97;6246056;23;20075;-81
2021/01/22 04:50:06;;;;;;;14.30;7.72;;;;;;;-145.48;100.00;59605.97;6245545;23;20351;-82
2021/01/22 04:52:32;;;;;;;19.40;8.32;;;;;;;-145.48;100.00;59605.97;6245739;23;20327;-81
2021/01/22 04:55:00;;;;;;;16.50;7.43;;;;;;;-145.48;100.00;59605.97;6245765;23;20304;-81
2021/01/22 04:57:27;;;;;;;13.35;7.60;;;;;;;-145.48;100.00;59605.97;6246450;23;20087;-81
2021/01/22 04:59:54;;;;;;;17.55;7.82;;;;;;;-145.48;100.00;59605.97;6246042;23;20693;-81
2021/01/22 05:02:19;;;;;;;12.02;7.25;;;;;;;-145.48;100.00;59605.97;6218874;23;20329;-81
2021/01/22 05:04:45;;;;;;;13.45;6.38;;;;;;;-145.48;100.00;59605.97;6211514;23;20063;-81
2021/01/22 05:07:11;;;;;;;21.25;8.85;;;;;;;-145.48;100.00;59605.97;6214431;23;20004;-81
2021/01/22 05:09:40;;;;;;;14.75;6.40;;;;;;;-145.48;100.00;59605.97;6213616;23;20028;-80
2021/01/22 05:12:07;;;;;;;18.95;7.97;;;;;;;-145.48;100.00;59605.97;6212215;23;20082;-80
2021/01/22 05:14:35;;;;;;;21.05;7.65;;;;;;;-145.48;100.00;59605.97;6224895;23;20008;-80
2021/01/22 05:17:11;;;;;;;14.10;7.90;;;;;;;-145.48;100.00;59605.97;6218209;23;20628;-78
2021/01/22 05:19:38;;;;;;;;;;;;;;;-145.48;100.00;59605.97;6213721;23;20005;-80
2021/01/22 05:22:05;;;;;;;8.45;4.75;;;;;;;-145.48;100.00;59605.97;6213098;23;19908;-79
2021/01/22 05:24:31;;;;;;;16.55;7.47;;;;;;;-145.48;100.00;59605.97;6213299;23;20755;-80
2021/01/22 05:27:14;;;;;;;16.02;6.65;;;;;;;-145.48;100.00;59605.97;6213443;23;20026;-81
2021/01/22 05:29:41;;;;;;;18.58;7.20;;;;;;;-145.48;100.00;59605.97;6214385;23;20007;-81
2021/01/22 05:32:27;;;;;;;14.43;6.97;;;;;;;-145.48;100.00;59605.97;6213053;23;20004;-80
2021/01/22 05:34:52;;;;;;;14.97;7.07;;;;;;;-145.48;100.00;59605.97;6211023;23;20008;-81
2021/01/22 05:37:22;;;;;;;16.02;7.10;;;;;;;-145.48;100.00;59605.97;6212985;23;20086;-81
2021/01/22 05:40:11;;;;;;;15.77;6.60;;;;;;;-145.48;100.00;59605.97;6210039;23;20012;-80
2021/01/22 05:42:55;;;;;;;13.70;7.32;;;;;;;-145.48;100.00;59605.97;6213218;23;20005;-81
2021/01/22 05:45:46;;;;;;;10.45;6.32;;;;;;;-145.48;100.00;59605.97;6214708;23;20004;-81
2021/01/22 05:48:25;;;;;;;13.50;7.03;;;;;;;-145.48;100.00;59605.97;6215871;23;20001;-80
2021/01/22 05:50:59;;;;;;;24.23;7.80;;;;;;;-145.48;100.00;59605.97;6213634;23;20005;-80
2021/01/22 05:53:26;;;;;;;13.55;8.75;;;;;;;-145.48;100.00;59605.97;6212580;23;20017;-81
2021/01/22 05:56:13;;;;;;;13.45;6.47;;;;;;;-145.48;100.00;59605.97;6211250;23;20010;-80
2021/01/22 05:58:41;;;;;;;17.05;7.32;;;;;;;-145.48;100.00;59605.97;6214764;23;20008;-80
2021/01/22 06:01:15;;;;;;;21.15;8.18;;;;;;;-145.48;100.00;59605.97;6213999;23;19997;-81
2021/01/22 06:03:42;;;;;;;18.80;7.05;;;;;;;-145.48;100.00;59605.97;6218944;23;20020;-81
2021/01/22 06:06:09;;;;;;;17.65;7.30;;;;;;;-145.48;100.00;59605.97;6218246;23;20060;-81
2021/01/22 06:08:57;;;;;;;16.55;7.45;;;;;;;-145.48;100.00;59605.97;6219218;23;20099;-81
2021/01/22 06:11:27;;;;;;;10.05;6.32;;;;;;;-145.48;100.00;59605.97;6219658;23;20028;-81
2021/01/22 06:13:54;;;;;;;16.40;6.50;;;;;;;-145.48;100.00;59605.97;6222415;23;20399;-81
2021/01/22 06:16:22;;;;;;;11.43;5.70;;;;;;;-145.48;100.00;59605.97;6216890;23;20457;-81
2021/01/22 06:19:02;;;;;;;13.27;5.50;;;;;;;-145.48;100.00;59605.97;6211091;23;20382;-80
2021/01/22 06:21:30;;;;;;;14.50;6.05;;;;;;;-145.48;100.00;59605.97;6211729;23;20032;-80
2021/01/22 06:23:56;;;;;;;12.82;5.30;;;;;;;-145.48;100.00;59605.97;6215960;23;20004;-81
2021/01/22 06:26:22;;;;;;;16.08;6.35;;;;;;;-145.48;100.00;59605.97;6217453;23;20039;-81
2021/01/22 06:28:53;;;;;;;12.73;6.50;;;;;;;-145.48;100.00;59605.97;6216084;23;20119;-80
2021/01/22 06:31:18;;;;;;;11.30;5.65;;;;;;;-145.48;100.00;59605.97;6209525;23;20083;-81
2021/01/22 06:33:46;;;;;;;17.30;6.18;;;;;;;-145.48;100.00;59605.97;6205135;23;20450;-80
2021/01/22 06:36:12;;;;;;;18.38;5.75;;;;;;;-145.48;100.00;59605.97;6209504;23;20020;-80
2021/01/22 06:38:40;;;;;;;10.00;5.57;;;;;;;-145.48;100.00;59605.97;6210276;23;20005;-80
2021/01/22 06:41:06;;;;;;;20.83;6.15;;;;;;;-145.48;100.00;59605.97;6212700;23;20001;-81
2021/01/22 06:43:37;;;;;;;19.45;6.30;;;;;;;-145.48;100.00;59605.97;6212867;23;20382;-81
2021/01/22 06:46:25;;;;;;;16.65;6.25;;;;;;;-145.48;100.00;59605.97;6208427;23;20009;-81
2021/01/22 06:48:58;;;;;;;17.75;7.38;;;;;;;-145.48;100.00;59605.97;6211926;23;20004;-79
2021/01/22 06:51:30;;;;;;;11.15;6.80;;;;;;;-145.48;100.00;59605.97;6207926;23;20016;-81
2021/01/22 06:54:03;;;;;;;12.40;6.43;;;;;;;-145.48;100.00;59605.97;6210136;23;20016;-80
2021/01/22 06:56:29;;;;;;;11.88;6.75;;;;;;;-145.48;100.00;59605.97;6213185;23;20000;-81
2021/01/22 06:58:54;;;;;;;13.02;7.25;;;;;;;-145.48;100.00;59605.97;6212197;23;20031;-80
2021/01/22 07:01:33;;;;;;;18.42;8.23;;;;;;;-145.48;100.00;59605.97;6213023;23;20027;-80
2021/01/22 07:03:59;;;;;;;13.80;7.13;;;;;;;-145.48;100.00;59605.97;6225279;22;20012;-81
2021/01/22 07:06:48;;;;;;;18.70;7.60;;;;;;;-145.48;100.00;59605.97;6216334;23;20004;-81
2021/01/22 07:09:14;;;;;;;13.63;7.85;;;;;;;-145.48;100.00;59605.97;6242673;23;20046;-81
2021/01/22 07:11:50;;;;;;;21.38;8.05;;;;;;;-145.48;100.00;59605.97;6244175;23;20008;-80
2021/01/22 07:14:36;;;;;;;24.13;9.05;;;;;;;-145.48;100.00;59605.97;6217504;23;20008;-81
2021/01/22 07:17:19;;;;;;;19.95;8.93;;;;;;;-145.48;100.00;59605.97;6217196;23;20330;-81
2021/01/22 07:19:57;;;;;;;21.73;8.50;;;;;;;-145.48;100.00;59605.97;6216315;23;20154;-80
2021/01/22 07:22:22;;;;;;;19.48;9.07;;;;;;;-145.48;100.00;59605.97;6216316;23;20008;-80
2021/01/22 07:24:50;;;;;;;18.02;7.68;;;;;;;-145.48;100.00;59605.97;6241773;23;20041;-80
2021/01/22 07:27:16;;;;;;;18.65;8.40;;;;;;;-145.48;100.00;59605.97;6243543;23;20008;-82
2021/01/22 07:29:42;;;;;;;15.05;7.65;;;;;;;-145.48;100.00;59605.97;6244217;23;20050;-79
2021/01/22 07:32:09;;;;;;;14.15;7.47;;;;;;;-145.48;100.00;59605.97;6223034;23;20000;-80
2021/01/22 07:34:41;;;;;;;17.27;9.15;;;;;;;-145.48;100.00;59605.97;6238263;23;20039;-80
2021/01/22 07:37:09;;;;;;;18.88;8.00;;;;;;;-145.48;100.00;59605.97;6244630;23;20007;-80
2021/01/22 07:39:36;;;;;;;17.20;8.50;;;;;;;-145.48;100.00;59605.97;6217216;23;20091;-80
2021/01/22 07:42:20;;;;;;;13.95;7.13;;;;;;;-145.48;100.00;59605.97;6217518;23;20023;-81
2021/01/22 07:44:49;;;;;;;22.58;8.00;;;;;;;-145.48;100.00;59605.97;6243383;23;20078;-80
2021/01/22 07:47:31;;;;;;;15.55;7.28;;;;;;;-145.48;100.00;59605.97;6246214;23;20008;-81
2021/01/22 07:50:07;;;;;;;12.48;7.38;;;;;;;-145.48;100.00;59605.97;6217485;23;20107;-80
2021/01/22 07:52:48;;;;;;;15.93;7.67;;;;;;;-145.48;100.00;59605.97;6248102;23;20061;-79
2021/01/22 07:55:19;;;;;;;20.90;7.93;;;;;;;-145.48;100.00;59605.97;6245449;23;20004;-80
2021/01/22 07:57:46;;;;;;;14.73;7.35;;;;;;;-145.48;100.00;59605.97;6243596;23;20011;-80
2021/01/22 08:00:15;;;;;;;15.05;8.00;;;;;;;-145.48;100.00;59605.97;6219220;23;20058;-80
2021/01/22 08:02:57;;;;;;;17.92;7.55;;;;;;;-145.48;100.00;59605.97;6245779;23;20003;-80
2021/01/22 08:05:36;;;;;;;17.45;7.05;;;;;;;-145.48;100.00;59605.97;6245780;22;20019;-80
2021/01/22 08:08:16;;;;;;;14.85;7.15;;;;;;;-145.48;100.00;59605.97;6245921;23;20027;-79
2021/01/22 08:10:41;;;;;;;19.25;7.30;;;;;;;-145.48;100.00;59605.97;6245810;23;20291;-80
2021/01/22 08:13:06;;;;;;;10.88;5.72;;;;;;;-145.48;100.00;59605.97;6219782;23;20091;-80
2021/01/22 08:15:31;;;;;;;14.73;6.22;;;;;;;-145.48;100.00;59605.97;6248552;23;20008;-80
2021/01/22 08:17:57;;;;;;;19.35;7.47;;;;;;;-145.48;100.00;59605.97;6248132;23;20079;-80
2021/01/22 08:20:23;;;;;;;11.30;7.20;;;;;;;-145.48;100.00;59605.97;6246465;23;20009;-80
2021/01/22 08:23:00;;;;;;;21.13;8.90;;;;;;;-145.48;100.00;59605.97;6247404;23;20087;-80
2021/01/22 08:25:31;;;;;;;18.02;8.93;;;;;;;-145.48;100.00;59605.97;6247779;23;20519;-80
2021/01/22 08:27:57;;;;;;;11.85;7.18;;;;;;;-145.48;100.00;59605.97;6219148;23;20011;-80
2021/01/22 08:30:24;;;;;;;9.52;6.38;;;;;;;-145.48;100.00;59605.97;6244604;23;20043;-80
2021/01/22 08:32:51;;;;;;;14.93;7.25;;;;;;;-145.48;100.00;59605.97;6241543;23;20004;-80
2021/01/22 08:35:17;;;;;;;15.18;6.97;;;;;;;-145.48;100.00;59605.97;6242177;23;20003;-80
2021/01/22 08:37:44;;;;;;;16.52;7.47;;;;;;;-145.48;100.00;59605.97;6242712;23;20004;-81
2021/01/22 08:40:10;;;;;;;13.63;7.65;;;;;;;-145.48;100.00;59605.97;6243518;23;20434;-80
2021/01/22 08:42:36;;;;;;;21.00;10.15;;;;;;;-145.48;100.00;59605.97;6244227;23;20058;-81
2021/01/22 08:45:06;;;;;;;20.23;8.55;;;;;;;-145.48;100.00;59605.97;6244575;23;20004;-80
2021/01/22 08:47:39;;;;;;;12.75;7.63;;;;;;;-145.48;100.00;59605.97;6246560;23;20078;-81
2021/01/22 08:50:06;;;;;;;19.55;8.18;;;;;;;-145.48;100.00;59605.97;6219160;23;20000;-80
2021/01/22 08:52:31;;;;;;;19.83;8.30;;;;;;;-145.48;100.00;59605.97;6247353;23;20070;-81
2021/01/22 08:54:58;;;;;;;22.17;9.57;;;;;;;-145.48;100.00;59605.97;6247134;23;20008;-81
2021/01/22 08:57:28;;;;;;;19.77;8.55;;;;;;;-145.48;100.00;59605.97;6247503;23;20011;-81
2021/01/22 09:00:00;;;;;;;15.55;7.80;;;;;;;-145.48;100.00;59605.97;6246476;23;20079;-80
2021/01/22 09:02:44;;;;;;;17.70;8.32;;;;;;;-145.48;100.00;59605.97;6218753;23;20069;-80
2021/01/22 09:05:11;;;;;;;17.10;7.60;;;;;;;-145.48;100.00;59605.97;6212332;23;20406;-80
2021/01/22 09:07:37;;;;;;;18.40;8.30;;;;;;;-145.48;100.00;59605.97;6215957;23;20410;-81
2021/01/22 09:10:04;;;;;;;18.05;7.30;;;;;;;-145.48;100.00;59605.97;6214879;23;20001;-80
2021/01/22 09:12:33;;;;;;;16.10;7.22;;;;;;;-145.48;100.00;59605.97;6213354;23;20032;-80
2021/01/22 09:15:00;;;;;;;15.32;7.60;;;;;;;-145.48;100.00;59605.97;6218185;23;20083;-80
2021/01/22 09:17:50;;;;;;;14.40;6.93;;;;;;;-145.48;100.00;59605.97;6216642;23;20004;-81
2021/01/22 09:20:21;;;;;;;16.10;6.90;;;;;;;-145.48;100.00;59605.97;6220161;23;20095;-81
2021/01/22 09:22:48;;;;;;;19.33;7.25;;;;;;;-145.48;100.00;59605.97;6220314;23;20055;-81
2021/01/22 09:25:17;;;;;;;15.15;6.88;;;;;;;-145.48;100.00;59605.97;6215552;23;20011;-80
2021/01/22 09:27:44;;;;;;;14.55;7.25;;;;;;;-145.48;100.00;59605.97;6215729;23;20014;-82
2021/01/22 09:30:20;;;;;;;15.70;6.70;;;;;;;-145.48;100.00;59605.97;6216068;23;20000;-81
2021/01/22 09:32:48;;;;;;;15.43;6.47;;;;;;;-145.48;100.00;59605.97;6212788;23;20080;-81
2021/01/22 09:35:15;;;;;;;19.13;6.80;;;;;;;-145.48;100.00;59605.97;6212065;23;20005;-80
2021/01/22 09:37:40;;;;;;;12.77;5.82;;;;;;;-145.48;100.00;59605.97;6214678;23;20418;-80
2021/01/22 09:40:07;;;;;;;12.30;5.25;;;;;;;-145.48;100.00;59605.97;6213764;23;20050;-80
2021/01/22 09:42:34;;;;;;;20.00;6.68;;;;;;;-145.48;100.00;59605.97;6213223;23;20018;-80
2021/01/22 09:44:59;;;;;;;17.77;7.10;;;;;;;-145.48;100.00;59605.97;6215640;23;20007;-80
2021/01/22 09:47:24;;;;;;;13.60;5.30;;;;;;;-145.48;100.00;59605.97;6215268;23;20004;-81
2021/01/22 09:49:50;;;;;;;17.05;6.78;;;;;;;-145.48;100.00;59605.97;6215528;23;20005;-82
2021/01/22 09:52:15;;;;;;;10.48;4.55;;;;;;;-145.48;100.00;59605.97;6215570;23;20001;-81
2021/01/22 09:54:41;;;;;;;16.42;6.30;;;;;;;-145.48;100.00;59605.97;6219809;23;20009;-82
2021/01/22 09:57:07;;;;;;;11.23;4.97;;;;;;;-145.48;100.00;59605.97;6218626;23;20051;-81
2021/01/22 09:59:32;;;;;;;9.85;4.53;;;;;;;-145.48;100.00;59605.97;6223561;23;20014;-81
2021/01/22 10:01:57;;;;;;;17.48;6.03;;;;;;;-145.48;100.00;59605.97;6216838;23;20000;-81
2021/01/22 10:04:23;;;;;;;16.75;4.43;;;;;;;-145.48;100.00;59605.97;6231208;22;20745;-81
2021/01/22 10:06:48;;;;;;;13.07;4.38;;;;;;;-145.48;100.00;59605.97;6218048;23;19996;-81
2021/01/22 10:09:14;;;;;;;9.27;3.80;;;;;;;-145.48;100.00;59605.97;6245017;23;20004;-81
2021/01/22 10:11:40;;;;;;;10.57;4.15;;;;;;;-145.48;100.00;59605.97;6245911;23;20032;-81
2021/01/22 10:14:06;;;;;;;10.80;4.03;;;;;;;-145.48;100.00;59605.97;6218180;23;20070;-81
2021/01/22 10:16:31;;;;;;;13.55;3.72;;;;;;;-145.48;100.00;59605.97;6247189;23;20008;-82
2021/01/22 10:18:57;;;;;;;12.32;4.18;;;;;;;-145.48;100.00;59605.97;6245045;23;20004;-81
2021/01/22 10:21:23;;;;;;;16.38;3.85;;;;;;;-145.48;100.00;59605.97;6245985;23;20004;-82
2021/01/22 10:23:49;;;;;;;14.15;3.78;;;;;;;-145.48;100.00;59605.97;6244302;23;20011;-82
2021/01/22 10:26:16;;;;;;;15.93;3.53;;;;;;;-145.48;100.00;59605.97;6245005;23;20008;-81
2021/01/22 10:28:42;;;;;;;11.63;3.83;;;;;;;-145.48;100.00;59605.97;6243742;23;20003;-80
2021/01/22 10:31:07;;;;;;;9.35;3.35;;;;;;;-145.48;100.00;59605.97;6244810;23;20008;-81
2021/01/22 10:33:33;;;;;;;11.45;3.97;;;;;;;-145.48;100.00;59605.97;6239142;23;20091;-81
2021/01/22 10:35:59;;;;;;;10.48;3.40;;;;;;;-145.48;100.00;59605.97;6216708;23;20127;-81
2021/01/22 10:38:26;;;;;;;12.32;3.13;;;;;;;-145.48;100.00;59605.97;6243898;23;20011;-80
2021/01/22 10:40:52;;;;;;;11.25;3.90;;;;;;;-145.48;100.00;59605.97;6244354;23;20011;-81
2021/01/22 10:43:17;;;;;;;13.30;3.47;;;;;;;-145.48;100.00;59605.97;6244377;23;20470;-80
2021/01/22 10:45:42;;;;;;;13.27;3.45;;;;;;;-145.48;100.00;59605.97;6245167;23;20445;-80
2021/01/22 10:48:08;;;;;;;8.80;3.15;;;;;;;-145.48;100.00;59605.97;6218919;23;20038;-81
2021/01/22 10:50:33;;;;;;;14.18;3.65;;;;;;;-145.48;100.00;59605.97;6246194;23;20008;-80
2021/01/22 10:52:58;;;;;;;18.83;3.55;;;;;;;-145.48;100.00;59605.97;6248206;23;20008;-80
2021/01/22 10:55:24;;;;;;;17.35;3.78;;;;;;;-145.48;100.00;59605.97;6246093;23;20012;-80
2021/01/22 10:57:49;;;;;;;9.85;4.15;;;;;;;-145.48;100.00;59605.97;6220137;23;20008;-80
2021/01/22 11:00:15;;;;;;;12.50;3.40;;;;;;;-145.48;100.00;59605.97;6218660;23;20075;-80
2021/01/22 11:02:41;;;;;;;14.07;4.05;;;;;;;-145.48;100.00;59605.97;6220613;23;20007;-80
2021/01/22 11:05:07;;;;;;;8.95;3.13;;;;;;;-145.48;100.00;59605.97;6244392;23;20075;-80
2021/01/22 11:07:32;;;;;;;16.55;6.28;;;;;;;-145.48;100.00;59605.97;6218432;23;20004;-80
2021/01/22 11:09:58;;;;;;;6.85;2.92;;;;;;;-145.48;100.00;59605.97;6217969;23;20003;-80